createdAt,value
2018-02-17T00:00:54.890Z,89.80
2018-02-17T00:03:29.029Z,91.00
2018-02-17T00:06:04.309Z,91.00
2018-02-17T00:08:38.269Z,90.50
2018-02-17T00:11:13.176Z,90.40
2018-02-17T00:13:47.263Z,90.30
2018-02-17T00:16:20.908Z,90.50
2018-02-17T00:18:55.413Z,90.20
2018-02-17T00:21:31.061Z,90.10
2018-02-17T00:24:05.296Z,90.20
2018-02-17T00:26:39.501Z,90.20
2018-02-17T00:29:16.653Z,90.50
2018-02-17T00:31:50.948Z,90.40
2018-02-17T00:34:25.596Z,90.70
2018-02-17T00:36:59.559Z,90.60
2018-02-17T00:39:36.607Z,91.00
2018-02-17T00:42:10.516Z,91.10
2018-02-17T00:44:48.566Z,91.00
2018-02-17T00:47:21.982Z,90.80
2018-02-17T00:49:57.678Z,90.50
2018-02-17T00:52:31.816Z,90.80
2018-02-17T00:55:06.179Z,90.70
2018-02-17T00:57:40.830Z,90.40
2018-02-17T01:00:16.153Z,90.20
2018-02-17T01:02:50.321Z,90.40
2018-02-17T01:05:24.699Z,90.40
2018-02-17T01:07:59.061Z,90.70
2018-02-17T01:10:35.251Z,91.00
2018-02-17T01:13:11.012Z,91.00
2018-02-17T01:15:44.409Z,91.00
2018-02-17T01:18:18.348Z,91.10
2018-02-17T01:20:53.232Z,90.60
2018-02-17T01:23:26.491Z,90.80
2018-02-17T01:26:02.017Z,91.00
2018-02-17T01:28:35.353Z,91.50
2018-02-17T01:31:09.669Z,91.50
2018-02-17T01:33:44.867Z,91.60
2018-02-17T01:36:19.236Z,91.70
2018-02-17T01:38:53.833Z,92.30
2018-02-17T01:41:27.762Z,92.30
2018-02-17T01:44:01.812Z,92.30
2018-02-17T01:46:35.905Z,91.90
2018-02-17T01:49:12.923Z,91.70
2018-02-17T01:51:47.158Z,91.60
2018-02-17T01:54:21.864Z,91.10
2018-02-17T01:56:56.492Z,90.70
2018-02-17T01:59:31.488Z,90.60
2018-02-17T02:02:05.447Z,90.90
2018-02-17T02:04:39.773Z,90.60
2018-02-17T02:07:13.470Z,90.50
2018-02-17T02:09:51.868Z,90.50
2018-02-17T02:12:25.505Z,89.60
2018-02-17T02:15:00.171Z,90.00
2018-02-17T02:17:35.132Z,89.80
2018-02-17T02:20:10.609Z,90.40
2018-02-17T02:22:45.512Z,90.30
2018-02-17T02:25:19.464Z,90.30
2018-02-17T02:27:53.250Z,90.50
2018-02-17T02:30:30.837Z,91.40
2018-02-17T02:33:05.316Z,92.00
2018-02-17T02:35:38.690Z,91.80
2018-02-17T02:38:12.541Z,92.00
2018-02-17T02:40:50.172Z,91.80
2018-02-17T02:43:24.360Z,92.00
2018-02-17T02:45:58.908Z,91.60
2018-02-17T02:48:34.086Z,91.30
2018-02-17T02:51:08.616Z,92.00
2018-02-17T02:53:42.768Z,91.80
2018-02-17T02:56:17.742Z,91.60
2018-02-17T02:58:51.624Z,91.50
2018-02-17T03:01:26.199Z,91.60
2018-02-17T03:04:01.121Z,91.60
2018-02-17T03:06:35.718Z,92.00
2018-02-17T03:09:11.358Z,93.00
2018-02-17T03:11:45.529Z,93.00
2018-02-17T03:14:20.416Z,93.50
2018-02-17T03:16:54.523Z,92.70
2018-02-17T03:19:28.572Z,92.40
2018-02-17T03:22:02.440Z,91.40
2018-02-17T03:24:36.816Z,91.70
2018-02-17T03:27:10.969Z,91.70
2018-02-17T03:29:45.765Z,91.30
2018-02-17T03:32:19.410Z,91.50
2018-02-17T03:34:53.333Z,91.50
2018-02-17T03:37:28.708Z,91.10
2018-02-17T03:40:04.945Z,91.10
2018-02-17T03:42:39.769Z,91.30
2018-02-17T03:45:13.863Z,91.30
2018-02-17T03:47:47.721Z,91.00
2018-02-17T03:50:27.408Z,90.90
2018-02-17T03:53:01.538Z,90.90
2018-02-17T03:55:35.091Z,91.30
2018-02-17T03:58:09.581Z,91.10
2018-02-17T04:00:47.084Z,90.90
2018-02-17T04:03:22.325Z,90.80
2018-02-17T04:05:56.861Z,90.80
2018-02-17T04:08:32.834Z,90.90
2018-02-17T04:11:06.940Z,91.00
2018-02-17T04:13:42.413Z,90.50
2018-02-17T04:16:16.723Z,90.50
2018-02-17T04:18:57.317Z,90.50
2018-02-17T04:21:31.112Z,90.20
2018-02-17T04:24:07.332Z,88.50
2018-02-17T04:26:41.647Z,88.40
2018-02-17T04:29:16.528Z,87.80
2018-02-17T04:31:50.836Z,87.20
2018-02-17T04:34:25.280Z,87.30
2018-02-17T04:36:59.916Z,87.00
2018-02-17T04:39:38.617Z,86.20
2018-02-17T04:42:29.788Z,85.50
2018-02-17T04:45:20.934Z,85.60
2018-02-17T04:48:01.349Z,85.50
2018-02-17T04:50:43.765Z,85.60
2018-02-17T04:53:17.462Z,85.30
2018-02-17T04:55:57.550Z,85.60
2018-02-17T04:58:48.579Z,85.30
2018-02-17T05:01:23.457Z,86.80
2018-02-17T05:03:58.828Z,87.80
2018-02-17T05:06:38.156Z,88.00
2018-02-17T05:09:12.964Z,89.80
2018-02-17T05:11:47.298Z,89.80
2018-02-17T05:14:27.332Z,89.80
2018-02-17T05:17:20.356Z,90.00
2018-02-17T05:20:00.408Z,90.20
2018-02-17T05:22:34.016Z,90.30
2018-02-17T05:25:26.148Z,90.40
2018-02-17T05:28:00.193Z,90.80
2018-02-17T05:30:35.563Z,91.00
2018-02-17T05:33:15.133Z,91.10
2018-02-17T05:36:07.097Z,91.00
2018-02-17T05:38:56.513Z,91.20
2018-02-17T05:41:36.393Z,91.10
2018-02-17T05:44:27.815Z,91.10
2018-02-17T05:47:02.619Z,91.30
2018-02-17T05:49:38.016Z,91.50
2018-02-17T05:52:12.420Z,91.30
2018-02-17T05:54:46.101Z,91.30
2018-02-17T05:57:20.399Z,91.30
2018-02-17T05:59:58.603Z,91.30
2018-02-17T06:02:32.944Z,91.20
2018-02-17T06:05:06.453Z,91.00
2018-02-17T06:07:40.464Z,90.80
2018-02-17T06:10:16.189Z,90.70
2018-02-17T06:12:49.948Z,90.60
2018-02-17T06:15:24.535Z,90.60
2018-02-17T06:17:58.927Z,90.70
2018-02-17T06:20:33.812Z,90.70
2018-02-17T06:23:07.688Z,90.50
2018-02-17T06:25:42.427Z,87.60
2018-02-17T06:28:19.430Z,86.70
2018-02-17T06:30:52.769Z,87.10
2018-02-17T06:33:27.196Z,86.80
2018-02-17T06:36:01.403Z,88.40
2018-02-17T07:27:09.093Z,76.00
2018-02-17T07:29:43.540Z,76.30
2018-02-17T07:32:18.693Z,76.40
2018-02-17T07:34:53.428Z,75.70
2018-02-17T07:37:27.477Z,75.90
2018-02-17T07:40:01.290Z,73.50
2018-02-17T07:42:35.962Z,74.20
2018-02-17T07:45:09.077Z,74.50
2018-02-17T07:47:42.362Z,75.50
2018-02-17T07:50:16.577Z,75.00
2018-02-17T07:52:53.102Z,75.00
2018-02-17T07:55:26.489Z,74.90
2018-02-17T07:57:59.746Z,72.90
2018-02-17T08:00:33.182Z,73.00
2018-02-17T08:03:08.283Z,72.90
2018-02-17T08:05:41.862Z,73.00
2018-02-17T08:08:15.242Z,73.40
2018-02-17T08:10:48.688Z,72.60
2018-02-17T08:13:25.732Z,72.20
2018-02-17T08:15:59.809Z,71.10
2018-02-17T08:18:33.169Z,71.60
2018-02-17T08:24:12.969Z,70.70
2018-02-17T08:26:46.462Z,69.60
2018-02-17T08:33:18.622Z,69.60
2018-02-17T08:35:53.818Z,70.10
2018-02-17T08:38:28.281Z,69.10
2018-02-17T08:41:02.388Z,69.10
2018-02-17T08:43:36.540Z,68.70
2018-02-17T08:46:10.869Z,67.70
2018-02-17T08:48:49.554Z,66.30
2018-02-17T08:51:23.657Z,68.00
2018-02-17T08:53:58.837Z,66.00
2018-02-17T08:56:33.558Z,65.90
2018-02-17T08:59:08.013Z,66.00
2018-02-17T09:01:41.386Z,65.20
2018-02-17T09:04:14.764Z,64.20
2018-02-17T09:06:48.044Z,65.00
2018-02-17T09:09:23.101Z,65.20
2018-02-17T09:11:56.900Z,64.20
2018-02-17T09:14:31.209Z,63.40
2018-02-17T09:17:04.614Z,63.50
2018-02-17T09:19:37.982Z,63.30
2018-02-17T09:22:11.147Z,62.80
2018-02-17T09:24:44.533Z,62.60
2018-02-17T09:27:19.449Z,62.10
2018-02-17T09:29:55.659Z,61.90
2018-02-17T09:32:30.556Z,60.30
2018-02-17T09:35:05.050Z,59.50
2018-02-17T09:37:38.989Z,59.50
2018-02-17T09:40:14.681Z,59.00
2018-02-17T09:42:48.909Z,58.50
2018-02-17T09:45:23.249Z,57.50
2018-02-17T09:47:58.880Z,57.90
2018-02-17T09:50:34.573Z,57.90
2018-02-17T09:53:08.314Z,57.90
2018-02-17T09:55:41.762Z,57.70
2018-02-17T09:58:15.469Z,58.10
2018-02-17T10:00:49.437Z,57.90
2018-02-17T10:03:23.287Z,57.70
2018-02-17T10:05:56.597Z,57.00
2018-02-17T10:08:34.790Z,56.40
2018-02-17T10:11:08.382Z,56.40
2018-02-17T10:13:42.284Z,56.70
2018-02-17T10:16:16.087Z,57.70
2018-02-17T10:18:49.758Z,56.50
2018-02-17T10:21:22.830Z,55.20
2018-02-17T10:23:56.234Z,55.80
2018-02-17T10:26:29.501Z,56.80
2018-02-17T10:29:03.879Z,55.80
2018-02-17T10:31:38.099Z,55.80
2018-02-17T10:34:12.390Z,55.70
2018-02-17T10:36:46.965Z,54.60
2018-02-17T10:39:21.348Z,54.30
2018-02-17T10:41:55.011Z,54.30
2018-02-17T10:44:28.449Z,53.20
2018-02-17T10:47:01.801Z,54.10
2018-02-17T10:49:35.793Z,53.90
2018-02-17T10:52:11.075Z,52.30
2018-02-17T10:54:44.809Z,53.20
2018-02-17T10:57:18.609Z,52.30
2018-02-17T10:59:52.005Z,51.00
2018-02-17T11:02:26.322Z,39.50
2018-02-17T11:04:59.625Z,39.40
2018-02-17T11:07:33.169Z,39.10
2018-02-17T11:10:06.622Z,44.30
2018-02-17T11:12:39.765Z,44.80
2018-02-17T11:15:13.229Z,47.40
2018-02-17T11:17:47.897Z,46.10
2018-02-17T11:20:21.263Z,41.50
2018-02-17T11:22:54.488Z,40.80
2018-02-17T11:25:28.059Z,35.40
2018-02-17T11:28:01.950Z,35.50
2018-02-17T11:30:35.429Z,40.40
2018-02-17T11:33:09.874Z,36.20
2018-02-17T11:35:43.237Z,35.00
2018-02-17T11:38:19.599Z,34.90
2018-02-17T11:40:54.285Z,42.10
2018-02-17T11:43:28.255Z,42.10
2018-02-17T11:46:02.810Z,44.10
2018-02-17T11:48:37.018Z,37.10
2018-02-17T11:51:12.186Z,31.10
2018-02-17T11:53:45.837Z,30.90
2018-02-17T11:56:19.195Z,36.50
2018-02-17T11:58:52.494Z,41.30
2018-02-17T12:01:25.702Z,44.50
2018-02-17T12:03:59.205Z,45.10
2018-02-17T12:06:32.447Z,42.40
2018-02-17T12:09:05.913Z,39.60
2018-02-17T12:11:39.093Z,36.60
2018-02-17T12:14:12.418Z,29.00
2018-02-17T12:16:45.781Z,26.30
2018-02-17T12:19:20.246Z,31.30
2018-02-17T12:21:53.733Z,31.20
2018-02-17T12:24:27.813Z,37.50
2018-02-17T12:27:02.176Z,41.60
2018-02-17T12:29:36.238Z,41.50
2018-02-17T12:32:10.227Z,42.70
2018-02-17T12:34:43.542Z,37.40
2018-02-17T12:37:16.989Z,35.30
2018-02-17T12:39:50.406Z,37.80
2018-02-17T12:42:23.527Z,42.00
2018-02-17T12:44:56.758Z,42.50
2018-02-17T12:47:30.938Z,42.50
2018-02-17T12:50:04.895Z,42.40
2018-02-17T12:52:38.821Z,42.30
2018-02-17T12:55:12.341Z,44.00
2018-02-17T12:57:45.567Z,44.10
2018-02-17T13:00:19.165Z,44.50
2018-02-17T13:05:33.178Z,33.30
2018-02-17T13:08:06.420Z,29.20
2018-02-17T13:10:39.965Z,27.70
2018-02-17T13:13:14.487Z,33.40
2018-02-17T13:15:47.935Z,38.50
2018-02-17T13:18:21.305Z,42.60
2018-02-17T13:20:54.721Z,43.80
2018-02-17T13:23:27.832Z,44.80
2018-02-17T13:26:01.095Z,36.30
2018-02-17T13:28:38.370Z,33.50
2018-02-17T13:31:11.599Z,38.00
2018-02-17T13:33:45.729Z,43.80
2018-02-17T13:36:19.458Z,43.20
2018-02-17T13:38:52.671Z,42.10
2018-02-17T13:41:25.898Z,38.00
2018-02-17T13:43:59.466Z,33.40
2018-02-17T13:46:33.017Z,33.20
2018-02-17T13:49:10.433Z,38.90
2018-02-17T13:51:44.483Z,40.20
2018-02-17T13:54:19.197Z,39.60
2018-02-17T13:58:08.640Z,35.70
2018-02-17T14:00:42.981Z,37.20
2018-02-17T14:03:17.502Z,39.90
2018-02-17T14:05:51.225Z,42.60
2018-02-17T14:08:25.090Z,43.50
2018-02-17T14:10:59.791Z,45.50
2018-02-17T14:13:33.333Z,46.40
2018-02-17T14:16:06.869Z,46.90
2018-02-17T14:18:40.519Z,47.90
2018-02-17T14:21:15.043Z,49.20
2018-02-17T14:23:48.761Z,49.20
2018-02-17T14:26:22.268Z,49.20
2018-02-17T14:28:55.731Z,50.00
2018-02-17T14:31:29.182Z,50.20
2018-02-17T14:34:02.903Z,49.70
2018-02-17T14:36:36.213Z,49.00
2018-02-17T14:39:09.627Z,48.90
2018-02-17T14:41:43.017Z,49.00
2018-02-17T14:44:19.194Z,49.50
2018-02-17T14:46:52.674Z,50.50
2018-02-17T14:49:26.250Z,51.40
2018-02-17T14:51:59.538Z,50.40
2018-02-17T14:54:32.975Z,48.80
2018-02-17T14:57:06.539Z,48.20
2018-02-17T14:59:40.010Z,49.00
2018-02-17T15:02:13.559Z,50.40
2018-02-17T15:04:47.652Z,50.40
2018-02-17T15:07:21.430Z,51.00
2018-02-17T15:09:54.823Z,51.40
2018-02-17T15:12:28.689Z,51.60
2018-02-17T15:15:03.246Z,52.60
2018-02-17T15:17:37.201Z,53.10
2018-02-17T20:31:19.492Z,55.80
2018-02-17T20:33:59.214Z,73.60
2018-02-17T20:36:35.518Z,83.00
2018-02-17T20:39:13.005Z,90.00
2018-02-17T20:42:31.688Z,90.60
2018-02-17T20:43:12.618Z,90.70
2018-02-17T20:43:54.124Z,90.70
2018-02-17T20:44:35.031Z,90.80
2018-02-17T20:45:16.263Z,91.10
2018-02-17T20:45:57.228Z,91.00
2018-02-17T20:46:38.701Z,90.70
2018-02-17T21:13:11.712Z,91.20
2018-02-17T21:15:45.282Z,91.00
2018-02-17T21:18:18.771Z,91.40
2018-02-17T21:20:52.582Z,91.20
2018-02-17T21:23:26.388Z,91.20
2018-02-17T21:26:01.016Z,91.30
2018-02-17T21:28:35.075Z,91.30
2018-02-17T21:31:08.712Z,91.30
2018-02-17T21:33:42.582Z,91.30
2018-02-17T21:36:16.167Z,91.40
2018-02-17T21:43:28.548Z,91.30
2018-02-17T21:48:32.982Z,91.60
2018-02-17T21:58:12.439Z,91.50
2018-02-17T22:03:16.396Z,91.50
2018-02-17T22:08:20.634Z,91.20
2018-02-17T22:13:24.660Z,91.10
2018-02-17T22:18:29.860Z,91.00
2018-02-17T22:23:36.218Z,90.60
2018-02-17T22:28:42.037Z,90.50
2018-02-17T22:33:52.359Z,90.50
2018-02-17T22:38:57.553Z,90.10
2018-02-17T22:44:02.643Z,90.10
2018-02-17T22:50:02.730Z,90.20
2018-02-17T22:55:11.561Z,90.50
2018-02-17T23:00:31.177Z,90.70
2018-02-17T23:05:38.402Z,90.60
2018-02-17T23:10:41.774Z,90.70
2018-02-17T23:15:47.782Z,91.30
2018-02-17T23:20:53.015Z,91.30
2018-02-17T23:25:59.769Z,91.90
2018-02-17T23:31:05.440Z,92.00
2018-02-17T23:36:11.393Z,92.40
2018-02-17T23:41:15.762Z,92.30
2018-02-17T23:46:23.948Z,92.40
2018-02-17T23:51:28.874Z,92.60
2018-02-17T23:56:37.157Z,92.70
